createdAt,value
2019-04-04T00:00:11.062Z,6.40
2019-04-04T00:02:41.344Z,6.30
2019-04-04T00:05:11.620Z,6.30
2019-04-04T00:07:42.313Z,6.30
2019-04-04T00:10:13.674Z,6.30
2019-04-04T00:12:43.991Z,6.30
2019-04-04T00:15:14.934Z,6.30
2019-04-04T00:17:46.058Z,6.30
2019-04-04T00:20:16.438Z,6.30
2019-04-04T00:22:46.734Z,6.30
2019-04-04T00:25:17.020Z,6.30
2019-04-04T00:27:48.308Z,6.30
2019-04-04T00:30:18.654Z,6.20
2019-04-04T00:32:48.992Z,6.20
2019-04-04T00:35:19.281Z,6.20
2019-04-04T00:37:49.572Z,6.20
2019-04-04T00:40:19.850Z,6.20
2019-04-04T00:42:50.372Z,6.20
2019-04-04T00:45:20.791Z,6.20
2019-04-04T00:47:51.484Z,6.10
2019-04-04T00:50:21.759Z,6.10
2019-04-04T00:52:52.344Z,6.00
2019-04-04T00:55:22.618Z,6.00
2019-04-04T00:57:52.904Z,6.00
2019-04-04T01:00:24.034Z,6.00
2019-04-04T01:02:55.111Z,6.00
2019-04-04T01:05:25.767Z,6.00
2019-04-04T01:07:56.048Z,6.00
2019-04-04T01:10:26.557Z,6.00
2019-04-04T01:12:58.314Z,5.90
2019-04-04T01:15:31.113Z,5.90
2019-04-04T01:18:04.077Z,5.90
2019-04-04T01:20:35.343Z,5.80
2019-04-04T01:23:06.745Z,5.80
2019-04-04T01:25:37.093Z,5.90
2019-04-04T01:28:08.172Z,5.90
2019-04-04T01:30:39.043Z,5.80
2019-04-04T01:33:09.330Z,5.90
2019-04-04T01:35:39.600Z,6.00
2019-04-04T01:38:09.973Z,6.00
2019-04-04T01:40:40.257Z,5.90
2019-04-04T01:43:10.533Z,6.00
2019-04-04T01:45:43.727Z,6.00
2019-04-04T01:48:13.077Z,6.00
2019-04-04T01:50:43.349Z,6.10
2019-04-04T01:53:13.650Z,6.10
2019-04-04T01:55:44.062Z,6.00
2019-04-04T01:58:14.549Z,6.10
2019-04-04T02:00:46.002Z,6.00
2019-04-04T02:03:16.995Z,6.10
2019-04-04T02:05:47.597Z,6.10
2019-04-04T02:08:18.263Z,6.20
2019-04-04T02:10:48.551Z,6.20
2019-04-04T02:13:20.242Z,6.20
2019-04-04T02:15:51.220Z,6.20
2019-04-04T02:18:23.297Z,6.30
2019-04-04T02:20:57.521Z,6.20
2019-04-04T02:23:26.233Z,6.20
2019-04-04T02:25:56.599Z,6.20
2019-04-04T02:28:27.201Z,6.10
2019-04-04T02:30:57.942Z,6.10
2019-04-04T02:33:32.189Z,6.10
2019-04-04T02:36:00.727Z,6.10
2019-04-04T02:38:31.009Z,6.10
2019-04-04T02:41:01.500Z,6.10
2019-04-04T02:43:32.124Z,6.10
2019-04-04T02:46:03.859Z,6.10
2019-04-04T02:48:34.410Z,6.10
2019-04-04T02:51:07.354Z,6.10
2019-04-04T02:53:36.744Z,6.10
2019-04-04T02:56:07.029Z,6.20
2019-04-04T02:58:37.318Z,6.20
2019-04-04T03:01:07.935Z,6.30
2019-04-04T03:03:42.106Z,6.30
2019-04-04T03:06:11.192Z,6.30
2019-04-04T03:08:42.555Z,6.20
2019-04-04T03:11:13.069Z,6.20
2019-04-04T03:13:43.397Z,6.20
2019-04-04T03:16:14.676Z,6.20
2019-04-04T03:18:45.474Z,6.20
2019-04-04T03:21:15.746Z,6.20
2019-04-04T03:23:46.241Z,6.10
2019-04-04T03:26:19.376Z,6.10
2019-04-04T03:28:48.979Z,6.00
2019-04-04T03:31:19.255Z,6.00
2019-04-04T03:33:49.700Z,6.00
2019-04-04T03:36:19.962Z,6.00
2019-04-04T03:38:50.253Z,6.00
2019-04-04T03:41:20.529Z,6.00
2019-04-04T03:43:51.180Z,6.00
2019-04-04T03:46:21.465Z,6.00
2019-04-04T03:48:51.821Z,5.90
2019-04-04T03:51:22.108Z,6.00
2019-04-04T03:53:54.029Z,6.00
2019-04-04T03:56:24.308Z,6.00
2019-04-04T03:58:54.589Z,6.00
2019-04-04T04:01:24.881Z,6.00
2019-04-04T04:03:56.169Z,6.00
2019-04-04T04:06:26.764Z,6.00
2019-04-04T04:08:57.281Z,6.10
2019-04-04T04:11:27.560Z,6.10
2019-04-04T04:13:57.853Z,6.10
2019-04-04T04:16:28.157Z,6.10
2019-04-04T04:18:58.662Z,6.10
2019-04-04T04:21:29.219Z,6.10
2019-04-04T04:23:59.504Z,6.10
2019-04-04T04:26:30.076Z,6.10
2019-04-04T04:29:00.356Z,6.20
2019-04-04T04:31:30.624Z,6.20
2019-04-04T04:34:01.783Z,6.20
2019-04-04T04:36:32.494Z,6.20
2019-04-04T04:39:02.777Z,6.30
2019-04-04T04:41:33.328Z,6.30
2019-04-04T04:44:05.643Z,6.30
2019-04-04T04:46:35.924Z,6.30
2019-04-04T04:49:06.211Z,6.30
2019-04-04T04:51:37.622Z,6.20
2019-04-04T04:54:07.894Z,6.20
2019-04-04T04:56:38.173Z,6.20
2019-04-04T04:59:08.445Z,6.20
2019-04-04T05:01:40.630Z,6.30
2019-04-04T05:04:10.974Z,6.30
2019-04-04T05:06:41.268Z,6.30
2019-04-04T05:09:13.672Z,6.30
2019-04-04T05:11:43.516Z,6.30
2019-04-04T05:14:13.788Z,6.40
2019-04-04T05:16:44.086Z,6.40
2019-04-04T05:19:14.367Z,6.40
2019-04-04T05:21:44.876Z,6.40
2019-04-04T05:24:16.050Z,6.40
2019-04-04T05:26:47.146Z,6.40
2019-04-04T05:29:17.434Z,6.40
2019-04-04T05:31:49.892Z,6.40
2019-04-04T05:34:19.921Z,6.40
2019-04-04T05:36:50.199Z,6.50
2019-04-04T05:39:21.158Z,6.50
2019-04-04T05:41:51.826Z,6.50
2019-04-04T05:44:22.124Z,6.50
2019-04-04T05:46:52.433Z,6.60
2019-04-04T05:49:22.663Z,6.60
2019-04-04T05:51:52.939Z,6.60
2019-04-04T05:54:23.235Z,6.50
2019-04-04T05:56:53.510Z,6.50
2019-04-04T05:59:24.503Z,6.50
2019-04-04T06:01:54.949Z,6.50
2019-04-04T06:04:25.220Z,6.50
2019-04-04T06:06:55.883Z,6.50
2019-04-04T06:09:26.244Z,6.50
2019-04-04T06:11:56.594Z,6.50
2019-04-04T06:14:27.979Z,6.40
2019-04-04T06:16:58.853Z,6.40
2019-04-04T06:19:29.122Z,6.40
2019-04-04T06:21:59.419Z,6.40
2019-04-04T06:24:29.698Z,6.40
2019-04-04T06:27:01.166Z,6.40
2019-04-04T06:29:31.456Z,6.90
2019-04-04T06:32:01.747Z,8.50
2019-04-04T06:34:32.036Z,9.60
2019-04-04T06:37:02.320Z,10.40
2019-04-04T06:39:32.609Z,10.20
2019-04-04T06:42:03.203Z,9.70
2019-04-04T06:44:34.277Z,9.10
2019-04-04T06:47:04.833Z,8.80
2019-04-04T06:49:36.167Z,8.40
2019-04-04T06:52:09.269Z,8.20
2019-04-04T06:54:39.348Z,8.00
2019-04-04T06:57:09.642Z,7.90
2019-04-04T06:59:43.007Z,7.80
2019-04-04T07:02:11.889Z,7.70
2019-04-04T07:04:42.438Z,7.60
2019-04-04T07:07:13.158Z,7.50
2019-04-04T07:09:43.463Z,7.40
2019-04-04T07:12:22.298Z,7.30
2019-04-04T07:14:49.310Z,7.20
2019-04-04T07:17:17.688Z,7.20
2019-04-04T07:19:47.959Z,7.20
2019-04-04T07:22:20.615Z,7.10
2019-04-04T07:24:51.686Z,7.10
2019-04-04T07:27:21.990Z,7.10
2019-04-04T07:29:52.258Z,7.20
2019-04-04T07:32:22.537Z,7.20
2019-04-04T07:34:52.817Z,7.20
2019-04-04T07:37:23.408Z,7.10
2019-04-04T07:39:53.685Z,7.10
2019-04-04T07:42:23.961Z,7.10
2019-04-04T07:44:54.740Z,7.00
2019-04-04T07:47:25.408Z,7.00
2019-04-04T07:49:55.957Z,7.00
2019-04-04T07:52:26.230Z,6.90
2019-04-04T07:54:56.504Z,6.90
2019-04-04T07:57:29.905Z,6.90
2019-04-04T07:59:58.759Z,6.80
2019-04-04T08:02:29.025Z,6.80
2019-04-04T08:04:59.307Z,6.80
2019-04-04T08:07:29.579Z,6.80
2019-04-04T08:10:00.982Z,6.80
2019-04-04T08:12:31.256Z,6.80
2019-04-04T08:15:01.523Z,6.70
2019-04-04T08:17:31.805Z,6.70
2019-04-04T08:20:02.074Z,6.80
2019-04-04T08:22:32.396Z,6.80
2019-04-04T08:25:02.889Z,6.80
2019-04-04T08:27:33.163Z,6.80
2019-04-04T08:30:04.593Z,6.80
2019-04-04T08:32:34.871Z,6.80
2019-04-04T08:35:07.641Z,6.70
2019-04-04T08:37:37.903Z,6.70
2019-04-04T08:40:09.958Z,6.60
2019-04-04T08:42:40.192Z,6.50
2019-04-04T08:45:10.690Z,6.40
2019-04-04T08:47:40.960Z,6.40
2019-04-04T08:50:11.547Z,6.50
2019-04-04T08:52:42.056Z,6.40
2019-04-04T08:55:12.469Z,6.50
2019-04-04T08:57:42.729Z,6.40
2019-04-04T09:00:13.409Z,6.50
2019-04-04T09:02:43.682Z,6.50
2019-04-04T09:05:14.012Z,6.50
2019-04-04T09:07:44.281Z,6.50
2019-04-04T09:10:14.883Z,6.50
2019-04-04T09:12:45.150Z,6.40
2019-04-04T09:15:16.523Z,6.40
2019-04-04T09:17:48.237Z,6.30
2019-04-04T09:20:18.650Z,6.20
2019-04-04T09:22:48.936Z,6.20
2019-04-04T09:25:19.193Z,6.10
2019-04-04T09:27:49.465Z,6.10
2019-04-04T09:30:20.142Z,6.10
2019-04-04T09:32:50.417Z,6.10
2019-04-04T09:35:20.679Z,6.10
2019-04-04T09:37:51.276Z,6.10
2019-04-04T09:40:21.544Z,6.10
2019-04-04T09:42:51.816Z,6.10
2019-04-04T09:45:22.078Z,6.10
2019-04-04T09:47:52.343Z,5.90
2019-04-04T09:50:22.622Z,5.90
2019-04-04T09:52:52.880Z,5.90
2019-04-04T09:55:23.153Z,5.90
2019-04-04T09:57:53.423Z,5.90
2019-04-04T10:00:24.107Z,5.90
2019-04-04T10:02:54.626Z,5.90
2019-04-04T10:05:24.898Z,6.00
2019-04-04T10:07:55.179Z,6.10
2019-04-04T10:10:25.441Z,6.20
2019-04-04T10:12:55.904Z,6.20
2019-04-04T10:15:26.450Z,6.30
2019-04-04T10:17:56.741Z,6.30
2019-04-04T10:20:27.052Z,6.40
2019-04-04T10:22:57.335Z,6.50
2019-04-04T10:25:28.505Z,6.50
2019-04-04T10:27:58.770Z,6.50
2019-04-04T10:30:29.400Z,6.40
2019-04-04T10:32:59.953Z,6.40
2019-04-04T10:35:30.248Z,6.40
2019-04-04T10:38:00.503Z,6.40
2019-04-04T10:40:30.905Z,6.30
2019-04-04T10:43:01.178Z,6.20
2019-04-04T10:45:31.437Z,6.20
2019-04-04T10:48:01.710Z,6.10
2019-04-04T10:50:32.224Z,6.10
2019-04-04T10:53:02.500Z,6.10
2019-04-04T10:55:34.139Z,6.10
2019-04-04T10:58:04.466Z,6.10
2019-04-04T11:00:34.736Z,6.10
2019-04-04T11:03:05.067Z,6.10
2019-04-04T11:05:35.565Z,6.10
2019-04-04T11:08:05.891Z,6.10
2019-04-04T11:10:36.566Z,6.20
2019-04-04T11:13:06.817Z,6.20
2019-04-04T11:15:37.108Z,6.20
2019-04-04T11:18:07.440Z,6.30
2019-04-04T11:20:37.707Z,6.30
2019-04-04T11:23:07.973Z,6.20
2019-04-04T11:25:38.506Z,6.20
2019-04-04T11:28:08.779Z,6.30
2019-04-04T11:30:39.038Z,6.30
2019-04-04T11:33:09.309Z,6.30
2019-04-04T11:35:39.917Z,6.30
2019-04-04T11:38:11.098Z,6.30
2019-04-04T11:40:41.360Z,6.20
2019-04-04T11:43:11.626Z,6.30
2019-04-04T11:45:41.889Z,6.20
2019-04-04T11:48:12.173Z,6.30
2019-04-04T11:50:42.622Z,6.30
2019-04-04T11:53:12.871Z,6.30
2019-04-04T11:55:43.306Z,6.40
2019-04-04T11:58:13.575Z,6.40
2019-04-04T12:00:45.550Z,6.40
2019-04-04T12:03:15.809Z,6.40
2019-04-04T12:05:46.084Z,6.50
2019-04-04T12:08:16.344Z,6.50
2019-04-04T12:10:47.114Z,6.50
2019-04-04T12:13:17.446Z,6.50
2019-04-04T12:15:47.713Z,6.50
2019-04-04T12:18:18.286Z,6.50
2019-04-04T12:20:48.549Z,6.50
2019-04-04T12:23:18.813Z,6.50
2019-04-04T12:25:49.076Z,6.40
2019-04-04T12:28:19.344Z,6.40
2019-04-04T12:30:49.616Z,6.40
2019-04-04T12:33:20.051Z,6.40
2019-04-04T12:35:52.382Z,6.40
2019-04-04T12:38:22.542Z,6.40
2019-04-04T12:40:52.787Z,6.40
2019-04-04T12:43:23.059Z,6.40
2019-04-04T12:45:53.328Z,6.40
2019-04-04T12:48:23.592Z,6.40
2019-04-04T12:50:53.865Z,6.30
2019-04-04T12:53:24.130Z,6.40
2019-04-04T12:55:54.468Z,6.40
2019-04-04T12:58:24.662Z,6.40
2019-04-04T13:00:54.931Z,6.40
2019-04-04T13:03:25.194Z,6.50
2019-04-04T13:05:55.461Z,6.50
2019-04-04T13:08:25.726Z,6.50
2019-04-04T13:10:55.990Z,6.50
2019-04-04T13:13:26.253Z,6.50
2019-04-04T13:15:56.973Z,6.50
2019-04-04T13:18:27.237Z,6.50
2019-04-04T13:20:57.578Z,6.50
2019-04-04T13:23:27.845Z,6.40
2019-04-04T13:25:58.124Z,6.40
2019-04-04T13:28:47.867Z,6.30
2019-04-04T13:31:25.786Z,6.40
2019-04-04T13:33:56.068Z,6.40
2019-04-04T13:36:26.327Z,6.30
2019-04-04T13:38:56.598Z,6.30
2019-04-04T13:41:26.871Z,6.30
2019-04-04T13:43:57.148Z,6.30
2019-04-04T13:46:29.366Z,6.40
2019-04-04T13:48:59.399Z,6.30
2019-04-04T13:51:29.659Z,6.40
2019-04-04T13:54:00.489Z,6.30
2019-04-04T13:56:31.874Z,6.30
2019-04-04T13:59:05.690Z,6.30
2019-04-04T14:01:34.195Z,6.40
2019-04-04T14:04:04.500Z,6.30
2019-04-04T14:06:35.025Z,6.30
2019-04-04T14:09:12.086Z,6.40
2019-04-04T14:11:42.052Z,6.40
2019-04-04T14:14:13.581Z,6.40
2019-04-04T14:16:43.847Z,6.40
2019-04-04T14:19:14.117Z,6.30
2019-04-04T14:21:44.388Z,6.20
2019-04-04T14:24:14.686Z,6.20
2019-04-04T14:26:46.123Z,6.30
2019-04-04T14:29:26.662Z,6.30
2019-04-04T14:31:48.773Z,6.30
2019-04-04T14:34:19.041Z,6.40
2019-04-04T14:36:49.309Z,6.30
2019-04-04T14:39:19.798Z,6.30
2019-04-04T14:41:50.071Z,6.30
2019-04-04T14:44:20.337Z,6.30
2019-04-04T14:46:50.606Z,6.30
2019-04-04T14:49:20.872Z,6.40
2019-04-04T14:51:51.154Z,6.30
2019-04-04T14:54:22.765Z,6.30
2019-04-04T14:56:53.037Z,6.30
2019-04-04T14:59:23.381Z,6.40
2019-04-04T15:01:53.648Z,6.40
2019-04-04T15:04:23.924Z,6.40
2019-04-04T15:06:54.485Z,6.50
2019-04-04T15:09:24.775Z,6.50
2019-04-04T15:11:55.061Z,6.50
2019-04-04T15:14:25.674Z,6.60
2019-04-04T15:16:55.920Z,6.60
2019-04-04T15:19:26.196Z,6.50
2019-04-04T15:21:56.465Z,6.50
2019-04-04T15:24:26.729Z,6.60
2019-04-04T15:26:57.001Z,6.60
2019-04-04T15:29:27.260Z,6.60
2019-04-04T15:31:57.536Z,6.60
2019-04-04T15:34:27.794Z,6.60
2019-04-04T15:36:58.069Z,6.60
2019-04-04T15:39:28.328Z,6.50
2019-04-04T15:41:58.669Z,6.50
2019-04-04T15:44:28.928Z,6.40
2019-04-04T15:46:59.560Z,6.30
2019-04-04T15:49:29.821Z,6.30
2019-04-04T15:52:00.091Z,6.30
2019-04-04T15:54:30.365Z,6.30
2019-04-04T15:57:00.628Z,6.30
2019-04-04T15:59:30.950Z,6.30
2019-04-04T16:02:01.157Z,6.30
2019-04-04T16:04:31.442Z,6.20
2019-04-04T16:07:01.701Z,6.20
2019-04-04T16:09:32.290Z,6.20
2019-04-04T16:12:02.555Z,6.20
2019-04-04T16:14:32.822Z,6.20
2019-04-04T16:17:03.090Z,6.20
2019-04-04T16:19:33.360Z,6.10
2019-04-04T16:22:03.644Z,6.10
2019-04-04T16:24:33.904Z,6.10
2019-04-04T16:27:04.166Z,6.10
2019-04-04T16:29:34.427Z,6.10
2019-04-04T16:32:05.006Z,6.20
2019-04-04T16:34:35.268Z,6.20
2019-04-04T16:37:05.603Z,6.20
2019-04-04T16:39:35.867Z,6.30
2019-04-04T16:42:06.133Z,6.30
2019-04-04T16:44:36.398Z,6.40
2019-04-04T16:47:06.664Z,6.50
2019-04-04T16:49:38.256Z,6.50
2019-04-04T16:52:08.935Z,6.50
2019-04-04T16:54:39.201Z,6.50
2019-04-04T16:57:09.785Z,6.60
2019-04-04T16:59:40.047Z,6.70
2019-04-04T17:02:10.319Z,6.70
2019-04-04T17:04:40.862Z,6.70
2019-04-04T17:07:11.134Z,6.70
2019-04-04T17:09:41.622Z,6.70
2019-04-04T17:12:15.067Z,6.70
2019-04-04T17:14:43.857Z,6.70
2019-04-04T17:17:14.258Z,6.70
2019-04-04T17:19:44.531Z,6.60
2019-04-04T17:22:14.801Z,6.70
2019-04-04T17:24:45.082Z,6.70
2019-04-04T17:27:15.350Z,6.70
2019-04-04T17:29:45.609Z,6.80
2019-04-04T17:32:15.881Z,6.80
2019-04-04T17:34:46.570Z,6.70
2019-04-04T17:37:17.644Z,6.70
2019-04-04T17:39:48.033Z,6.70
2019-04-04T17:42:29.676Z,6.60
2019-04-04T17:44:51.387Z,6.60
2019-04-04T17:47:21.647Z,6.40
2019-04-04T17:49:52.053Z,6.40
2019-04-04T17:52:22.833Z,6.40
2019-04-04T17:54:53.202Z,6.40
2019-04-04T17:57:23.517Z,6.30
2019-04-04T17:59:53.719Z,6.40
2019-04-04T18:02:24.270Z,6.30
2019-04-04T18:04:54.532Z,6.30
2019-04-04T18:07:24.824Z,6.30
2019-04-04T18:09:55.086Z,6.20
2019-04-04T18:12:25.355Z,6.20
2019-04-04T18:14:56.736Z,6.20
2019-04-04T18:17:27.168Z,6.20
2019-04-04T18:19:57.783Z,6.20
2019-04-04T18:22:28.311Z,6.20
2019-04-04T18:24:58.934Z,6.20
2019-04-04T18:27:29.213Z,6.20
2019-04-04T18:30:00.597Z,6.30
2019-04-04T18:32:30.905Z,6.30
2019-04-04T18:35:01.525Z,6.20
2019-04-04T18:37:32.289Z,6.20
2019-04-04T18:40:02.537Z,6.20
2019-04-04T18:42:33.054Z,6.20
2019-04-04T18:45:03.792Z,6.10
2019-04-04T18:47:34.291Z,6.10
2019-04-04T18:50:06.680Z,6.10
2019-04-04T18:52:36.959Z,6.10
2019-04-04T18:55:19.059Z,6.10
2019-04-04T18:57:40.151Z,6.10
2019-04-04T19:00:12.803Z,6.10
2019-04-04T19:02:43.239Z,6.10
2019-04-04T19:05:13.745Z,6.10
2019-04-04T19:07:44.009Z,6.10
2019-04-04T19:10:14.677Z,6.10
2019-04-04T19:12:44.948Z,6.10
2019-04-04T19:15:16.196Z,6.10
2019-04-04T19:17:46.459Z,6.10
2019-04-04T19:20:17.138Z,6.10
2019-04-04T19:22:47.411Z,6.10
2019-04-04T19:25:18.771Z,6.20
2019-04-04T19:27:49.048Z,6.20
2019-04-04T19:30:19.982Z,6.20
2019-04-04T19:32:50.324Z,6.20
2019-04-04T19:35:20.924Z,6.20
2019-04-04T19:37:59.921Z,6.20
2019-04-04T19:40:23.218Z,6.10
2019-04-04T19:42:53.490Z,6.20
2019-04-04T19:45:23.770Z,6.10
2019-04-04T19:47:54.034Z,6.10
2019-04-04T19:50:24.374Z,6.10
2019-04-04T19:52:54.645Z,6.10
2019-04-04T19:55:25.267Z,6.10
2019-04-04T19:57:55.544Z,6.10
2019-04-04T20:00:25.804Z,6.10
2019-04-04T20:02:56.076Z,6.10
2019-04-04T20:05:26.687Z,6.00
2019-04-04T20:07:56.953Z,6.00
2019-04-04T20:10:28.399Z,6.00
2019-04-04T20:12:58.717Z,6.00
2019-04-04T20:15:28.984Z,6.00
2019-04-04T20:17:59.517Z,6.00
2019-04-04T20:20:29.780Z,6.00
2019-04-04T20:23:00.050Z,6.00
2019-04-04T20:25:30.311Z,6.10
2019-04-04T20:28:00.577Z,6.10
2019-04-04T20:30:39.305Z,6.10
2019-04-04T20:33:10.044Z,6.10
2019-04-04T20:35:40.590Z,6.20
2019-04-04T20:38:10.858Z,6.10
2019-04-04T20:40:41.131Z,6.10
2019-04-04T20:43:11.399Z,6.10
2019-04-04T20:45:41.663Z,6.10
2019-04-04T20:48:11.947Z,6.10
2019-04-04T20:50:42.210Z,6.10
2019-04-04T20:53:12.482Z,6.10
2019-04-04T20:55:42.747Z,6.00
2019-04-04T20:58:13.010Z,6.00
2019-04-04T21:00:43.347Z,5.90
2019-04-04T21:03:14.598Z,5.90
2019-04-04T21:05:44.883Z,5.90
2019-04-04T21:08:15.428Z,5.80
2019-04-04T21:10:46.714Z,5.80
2019-04-04T21:13:16.994Z,5.90
2019-04-04T21:15:47.275Z,5.90
2019-04-04T21:18:17.799Z,5.90
2019-04-04T21:20:48.074Z,5.90
2019-04-04T21:23:18.450Z,5.90
2019-04-04T21:25:48.947Z,5.90
2019-04-04T21:28:19.220Z,5.80
2019-04-04T21:30:49.488Z,5.80
2019-04-04T21:33:19.769Z,5.80
2019-04-04T21:35:50.033Z,5.80
2019-04-04T21:38:20.317Z,5.80
2019-04-04T21:40:50.825Z,5.90
2019-04-04T21:43:21.107Z,5.90
2019-04-04T21:45:51.890Z,5.80
2019-04-04T21:48:23.279Z,5.80
2019-04-04T21:50:53.547Z,5.80
2019-04-04T21:53:23.815Z,5.70
2019-04-04T21:55:54.117Z,5.70
2019-04-04T21:58:24.379Z,5.70
2019-04-04T22:00:55.853Z,5.70
2019-04-04T22:03:26.194Z,5.70
2019-04-04T22:05:56.704Z,5.80
2019-04-04T22:08:26.965Z,5.80
2019-04-04T22:10:57.246Z,5.80
2019-04-04T22:13:27.521Z,5.90
2019-04-04T22:15:58.081Z,5.90
2019-04-04T22:18:28.351Z,5.90
2019-04-04T22:20:58.617Z,5.90
2019-04-04T22:23:28.921Z,6.00
2019-04-04T22:25:59.198Z,6.00
2019-04-04T22:28:29.469Z,6.00
2019-04-04T22:31:00.839Z,6.00
2019-04-04T22:33:31.353Z,6.00
2019-04-04T22:36:01.632Z,6.00
2019-04-04T22:38:31.900Z,6.00
2019-04-04T22:41:02.248Z,6.00
2019-04-04T22:43:32.527Z,6.00
2019-04-04T22:46:03.228Z,6.00
2019-04-04T22:48:33.461Z,6.00
2019-04-04T22:51:03.721Z,6.10
2019-04-04T22:53:33.990Z,6.10
2019-04-04T22:56:04.344Z,6.10
2019-04-04T22:58:34.638Z,6.10
2019-04-04T23:01:04.976Z,6.10
2019-04-04T23:03:35.263Z,6.10
2019-04-04T23:06:05.527Z,6.10
2019-04-04T23:08:35.807Z,6.10
2019-04-04T23:11:06.106Z,6.10
2019-04-04T23:13:36.376Z,6.10
2019-04-04T23:16:06.890Z,6.20
2019-04-04T23:18:37.159Z,6.10
2019-04-04T23:21:07.501Z,6.10
2019-04-04T23:23:37.770Z,6.10
2019-04-04T23:26:08.046Z,6.10
2019-04-04T23:28:38.317Z,6.10
2019-04-04T23:31:08.591Z,6.20
2019-04-04T23:33:38.890Z,6.20
2019-04-04T23:36:09.143Z,6.20
2019-04-04T23:38:39.429Z,6.20
2019-04-04T23:41:09.942Z,6.20
2019-04-04T23:43:40.213Z,6.20
2019-04-04T23:46:10.713Z,6.30
2019-04-04T23:48:40.990Z,6.30
2019-04-04T23:51:11.262Z,6.30
2019-04-04T23:53:41.538Z,6.30
2019-04-04T23:56:12.052Z,6.30
2019-04-04T23:58:42.340Z,6.20
